Time;durP1;ratioP1;P1;durP2;ratioP2;P2;SDS_P1;SDS_P2;PMS_P1;PMS_P2;Temp;Humidity;BMP_temperature;BMP_pressure;BME280_temperature;BME280_humidity;BME280_pressure;Samples;Min_cycle;Max_cycle;Signal;HPM_P1;HPM_P2
2024/03/16 00:02:05;;;;;;;13.52;3.80;;;;;;;13.04;100.00;100917.28;5266851;28;20410;-79
2024/03/16 00:04:37;;;;;;;9.88;3.28;;;;;;;12.99;100.00;100919.50;5248114;28;20048;-80
2024/03/16 00:07:11;;;;;;;12.27;3.28;;;;;;;12.93;100.00;100912.22;5264716;28;20197;-80
2024/03/16 00:09:44;;;;;;;9.15;3.22;;;;;;;12.94;100.00;100913.84;5245095;28;20056;-80
2024/03/16 00:12:16;;;;;;;9.40;3.30;;;;;;;13.01;100.00;100932.53;5264961;28;20035;-80
2024/03/16 00:14:48;;;;;;;10.25;2.95;;;;;;;13.02;100.00;100928.91;5267016;28;20124;-79
2024/03/16 00:17:20;;;;;;;11.57;3.22;;;;;;;12.97;100.00;100926.72;5268167;28;20399;-80
2024/03/16 00:19:52;;;;;;;9.68;2.75;;;;;;;13.00;100.00;100923.00;5267674;28;20401;-80
2024/03/16 00:22:24;;;;;;;14.43;3.58;;;;;;;13.00;100.00;100931.69;5265978;28;20034;-80
2024/03/16 00:24:56;;;;;;;10.18;2.85;;;;;;;13.00;100.00;100930.88;5264992;28;20032;-80
2024/03/16 00:27:28;;;;;;;11.23;2.67;;;;;;;12.98;100.00;100938.06;5267257;28;20227;-79
2024/03/16 00:30:00;;;;;;;11.40;2.53;;;;;;;12.97;100.00;100937.25;5261923;28;20048;-80
2024/03/16 00:32:33;;;;;;;11.48;2.53;;;;;;;12.99;100.00;100937.91;5266112;28;20474;-80
2024/03/16 00:35:05;;;;;;;10.37;2.43;;;;;;;12.99;100.00;100943.16;5244642;28;20040;-80
2024/03/16 00:37:37;;;;;;;11.15;3.03;;;;;;;13.00;100.00;100947.47;5265935;28;20305;-79
2024/03/16 00:40:09;;;;;;;8.48;2.20;;;;;;;12.96;100.00;100945.28;5265298;28;20032;-80
2024/03/16 00:42:41;;;;;;;8.82;2.40;;;;;;;13.01;100.00;100956.19;5265946;28;20608;-80
2024/03/16 00:45:13;;;;;;;9.70;2.35;;;;;;;12.94;100.00;100944.59;5266007;28;20512;-81
2024/03/16 00:47:45;;;;;;;9.77;2.33;;;;;;;12.87;100.00;100939.06;5263543;28;20033;-80
2024/03/16 00:50:17;;;;;;;8.15;2.30;;;;;;;12.84;100.00;100945.47;5266481;28;20044;-80
2024/03/16 00:52:49;;;;;;;11.57;2.60;;;;;;;12.79;100.00;100931.88;5264606;28;20048;-80
2024/03/16 00:55:21;;;;;;;10.82;2.90;;;;;;;12.75;100.00;100943.66;5264239;28;20477;-80
2024/03/16 00:57:53;;;;;;;8.57;2.67;;;;;;;12.76;100.00;100945.31;5265527;28;20036;-80
2024/03/16 01:00:25;;;;;;;9.88;2.10;;;;;;;12.75;100.00;100950.72;5263579;28;20032;-80
2024/03/16 01:02:57;;;;;;;11.20;2.58;;;;;;;12.74;100.00;100952.53;5265128;28;20034;-80
2024/03/16 01:05:30;;;;;;;11.68;2.58;;;;;;;12.71;100.00;100951.97;5264871;28;20373;-80
2024/03/16 01:08:03;;;;;;;11.85;2.60;;;;;;;12.68;100.00;100939.09;5265054;28;20288;-79
2024/03/16 01:10:34;;;;;;;10.98;2.55;;;;;;;12.69;100.00;100952.13;5264813;28;20047;-79
2024/03/16 01:13:06;;;;;;;8.77;2.13;;;;;;;12.68;100.00;100952.25;5264338;28;20460;-80
2024/03/16 01:15:38;;;;;;;8.68;2.45;;;;;;;12.62;100.00;100945.78;5264010;28;20035;-80
2024/03/16 01:18:10;;;;;;;12.70;2.55;;;;;;;12.62;100.00;100953.66;5262838;28;20397;-80
2024/03/16 01:20:44;;;;;;;9.70;2.60;;;;;;;12.52;100.00;100945.78;5265412;28;20043;-80
2024/03/16 01:23:17;;;;;;;9.68;2.53;;;;;;;12.57;100.00;100950.59;5262724;28;20094;-79
2024/03/16 01:25:49;;;;;;;12.07;2.70;;;;;;;12.57;100.00;100961.94;5264448;28;20388;-79
2024/03/16 01:28:21;;;;;;;8.25;2.17;;;;;;;12.51;100.00;100954.63;5239110;28;20457;-79
2024/03/16 01:30:53;;;;;;;13.57;2.53;;;;;;;12.53;100.00;100965.00;5266285;28;20042;-80
2024/03/16 01:33:25;;;;;;;11.20;2.85;;;;;;;12.52;100.00;100963.34;5266613;28;20032;-80
2024/03/16 01:35:57;;;;;;;7.38;2.08;;;;;;;12.58;100.00;100974.13;5267847;28;20907;-80
2024/03/16 01:38:29;;;;;;;11.35;3.08;;;;;;;12.54;100.00;100964.88;5266281;28;20036;-80
2024/03/16 01:41:02;;;;;;;13.35;2.58;;;;;;;12.54;100.00;100975.38;5251103;28;20043;-79
2024/03/16 01:43:33;;;;;;;9.43;2.72;;;;;;;12.59;100.00;100982.84;5249963;28;20060;-80
2024/03/16 01:46:08;;;;;;;9.93;2.28;;;;;;;12.55;100.00;100989.34;5267650;28;20295;-80
2024/03/16 01:48:40;;;;;;;11.05;3.03;;;;;;;12.52;100.00;100985.19;5268310;28;20372;-80
2024/03/16 01:51:12;;;;;;;10.05;2.63;;;;;;;12.53;100.00;100986.03;5269430;28;20393;-80
2024/03/16 01:53:44;;;;;;;8.57;2.30;;;;;;;12.50;100.00;100987.16;5266884;28;20036;-80
2024/03/16 01:56:16;;;;;;;9.07;2.45;;;;;;;12.39;100.00;100968.91;5268496;28;20036;-80
2024/03/16 01:58:48;;;;;;;8.70;2.85;;;;;;;12.51;100.00;100983.53;5267556;28;20036;-80
2024/03/16 02:01:21;;;;;;;11.20;3.40;;;;;;;12.50;100.00;100992.41;5267618;28;20036;-80
2024/03/16 02:03:54;;;;;;;11.75;3.35;;;;;;;12.46;100.00;100982.28;5269078;28;20486;-80
2024/03/16 02:06:27;;;;;;;10.73;2.85;;;;;;;12.53;100.00;100986.03;5268568;28;20401;-80
2024/03/16 02:09:00;;;;;;;8.55;2.63;;;;;;;12.57;100.00;100995.28;5268288;28;20462;-80
2024/03/16 02:11:32;;;;;;;11.63;3.13;;;;;;;12.52;100.00;101002.75;5266934;28;20561;-80
2024/03/16 02:14:04;;;;;;;10.10;2.95;;;;;;;12.44;100.00;100986.88;5266528;28;20039;-80
2024/03/16 02:16:35;;;;;;;12.27;2.95;;;;;;;12.47;100.00;101002.34;5265993;28;20033;-80
2024/03/16 02:19:07;;;;;;;13.10;4.13;;;;;;;12.47;100.00;101011.06;5264712;28;20261;-80
2024/03/16 02:21:39;;;;;;;10.68;3.60;;;;;;;12.40;100.00;101002.06;5267470;28;20434;-80
2024/03/16 02:24:12;;;;;;;9.85;3.50;;;;;;;12.46;100.00;101012.00;5268153;28;20039;-80
2024/03/16 02:26:44;;;;;;;14.95;4.60;;;;;;;12.47;100.00;101013.69;5267031;28;20035;-80
2024/03/16 02:29:18;;;;;;;9.73;4.35;;;;;;;12.41;100.00;101004.56;5266455;28;20303;-80
2024/03/16 02:31:49;;;;;;;10.03;4.63;;;;;;;12.51;100.00;101014.25;5265353;28;20032;-80
2024/03/16 02:34:21;;;;;;;9.73;4.63;;;;;;;12.47;100.00;101018.13;5268158;28;20033;-80
2024/03/16 02:36:53;;;;;;;11.82;5.07;;;;;;;12.50;100.00;101025.72;5268100;28;20032;-80
2024/03/16 02:39:26;;;;;;;10.07;4.70;;;;;;;12.49;100.00;101019.63;5267722;28;20024;-80
2024/03/16 02:41:58;;;;;;;8.50;4.83;;;;;;;12.51;100.00;101028.22;5268439;28;20028;-80
2024/03/16 02:44:31;;;;;;;11.23;5.47;;;;;;;12.53;100.00;101031.53;5265450;28;20286;-80
2024/03/16 02:47:04;;;;;;;11.43;6.93;;;;;;;12.50;100.00;101033.59;5268082;28;20046;-80
2024/03/16 02:49:36;;;;;;;11.32;6.25;;;;;;;12.49;100.00;101037.19;5266546;28;20385;-80
2024/03/16 02:52:10;;;;;;;12.10;6.35;;;;;;;12.50;100.00;101042.34;5266948;28;20036;-80
2024/03/16 02:54:42;;;;;;;11.80;6.65;;;;;;;12.44;100.00;101045.50;5266871;28;20038;-80
2024/03/16 02:57:14;;;;;;;13.10;7.70;;;;;;;12.40;100.00;101062.50;5266793;28;20036;-79
2024/03/16 02:59:46;;;;;;;10.52;6.72;;;;;;;12.35;100.00;101059.44;5267365;28;20031;-80
2024/03/16 03:02:22;;;;;;;14.65;7.45;;;;;;;12.31;100.00;101077.31;5268356;28;20316;-80
2024/03/16 03:04:54;;;;;;;15.75;9.15;;;;;;;12.27;100.00;101086.38;5249005;28;20051;-80
2024/03/16 03:07:27;;;;;;;16.40;9.15;;;;;;;12.17;100.00;101082.94;5268077;28;20504;-80
2024/03/16 03:09:59;;;;;;;19.65;8.35;;;;;;;12.13;100.00;101094.69;5261473;28;20032;-80
2024/03/16 03:12:31;;;;;;;18.20;8.45;;;;;;;11.98;100.00;101082.88;5250080;28;20063;-80
2024/03/16 03:15:03;;;;;;;17.80;8.45;;;;;;;12.00;100.00;101104.56;5266903;28;20316;-79
2024/03/16 03:17:35;;;;;;;16.40;8.40;;;;;;;11.96;100.00;101111.88;5264911;28;20410;-80
2024/03/16 03:20:08;;;;;;;15.38;7.68;;;;;;;11.94;100.00;101116.44;5266256;28;20042;-80
2024/03/16 03:22:40;;;;;;;15.25;7.50;;;;;;;11.83;100.00;101106.00;5266340;28;20618;-80
2024/03/16 03:25:12;;;;;;;14.02;6.65;;;;;;;11.84;100.00;101118.19;5267507;28;20036;-80
2024/03/16 03:27:44;;;;;;;14.25;6.50;;;;;;;11.78;100.00;101131.78;5248417;28;20036;-80
2024/03/16 03:30:16;;;;;;;13.93;6.20;;;;;;;11.71;100.00;101131.50;5264515;28;20401;-80
2024/03/16 03:32:48;;;;;;;11.88;5.88;;;;;;;11.71;100.00;101147.25;5267341;28;20039;-79
2024/03/16 03:35:20;;;;;;;9.85;5.10;;;;;;;11.65;100.00;101147.75;5267440;28;20032;-80
2024/03/16 03:37:51;;;;;;;13.25;5.25;;;;;;;11.57;100.00;101147.59;5266747;28;20032;-78
2024/03/16 03:40:23;;;;;;;12.13;5.78;;;;;;;11.49;100.00;101140.34;5266427;28;20496;-79
2024/03/16 03:42:59;;;;;;;10.18;6.07;;;;;;;11.59;100.00;101158.75;5267046;28;20070;-79
2024/03/16 03:45:38;;;;;;;9.90;6.55;;;;;;;11.53;100.00;101154.88;5267874;28;20500;-79
2024/03/16 03:50:58;;;;;;;9.18;6.00;;;;;;;11.52;100.00;101168.97;5266410;28;20044;-79
2024/03/16 03:53:29;;;;;;;8.82;5.75;;;;;;;11.52;100.00;101181.25;5269078;28;20370;-78
2024/03/16 03:56:01;;;;;;;10.52;5.82;;;;;;;11.45;100.00;101184.38;5259625;28;20350;-78
2024/03/16 03:58:33;;;;;;;10.05;5.72;;;;;;;11.42;100.00;101175.94;5266263;28;20036;-79
2024/03/16 04:01:05;;;;;;;11.23;5.70;;;;;;;11.44;100.00;101181.91;5268710;28;20032;-78
2024/03/16 04:03:37;;;;;;;8.90;5.15;;;;;;;11.40;100.00;101183.09;5269809;28;20043;-79
2024/03/16 04:06:09;;;;;;;11.70;5.97;;;;;;;11.32;100.00;101185.50;5268932;28;20058;-79
2024/03/16 04:08:41;;;;;;;8.48;5.05;;;;;;;11.28;100.00;101191.97;5268623;28;20496;-79
2024/03/16 04:11:13;;;;;;;8.27;4.63;;;;;;;11.28;100.00;101203.28;5271063;28;20024;-78
2024/03/16 04:13:45;;;;;;;6.13;4.57;;;;;;;11.33;100.00;101206.38;5269974;28;20035;-79
2024/03/16 04:16:17;;;;;;;9.38;4.68;;;;;;;11.24;100.00;101209.75;5269334;28;20040;-79
2024/03/16 04:18:49;;;;;;;5.20;4.53;;;;;;;11.20;100.00;101205.72;5270237;28;20043;-78
2024/03/16 04:21:21;;;;;;;8.00;5.35;;;;;;;11.21;100.00;101217.84;5270224;28;20032;-78
2024/03/16 04:23:52;;;;;;;11.45;6.15;;;;;;;11.17;100.00;101208.59;5270162;28;20052;-78
2024/03/16 04:26:25;;;;;;;6.68;5.63;;;;;;;11.14;100.00;101207.06;5271398;28;20393;-78
2024/03/16 04:28:56;;;;;;;7.97;6.22;;;;;;;11.17;100.00;101233.03;5271916;28;20371;-78
2024/03/16 04:31:30;;;;;;;6.68;5.18;;;;;;;11.10;100.00;101252.84;5269422;28;20036;-78
2024/03/16 04:34:02;;;;;;;8.23;5.75;;;;;;;11.06;100.00;101234.84;5270839;28;20028;-78
2024/03/16 04:36:34;;;;;;;7.65;6.25;;;;;;;11.02;100.00;101251.78;5269148;28;20038;-78
2024/03/16 04:39:06;;;;;;;10.95;6.55;;;;;;;10.99;100.00;101263.34;5268437;28;20432;-78
2024/03/16 04:41:38;;;;;;;11.65;7.18;;;;;;;11.01;100.00;101260.59;5269021;28;20036;-78
2024/03/16 04:44:10;;;;;;;9.05;6.63;;;;;;;10.98;100.00;101273.94;5270492;28;20045;-79
2024/03/16 04:46:42;;;;;;;7.65;6.95;;;;;;;10.91;100.00;101279.69;5270000;28;20040;-78
2024/03/16 04:49:14;;;;;;;6.32;5.07;;;;;;;10.89;100.00;101286.00;5267326;28;20025;-79
2024/03/16 04:51:46;;;;;;;5.53;4.60;;;;;;;10.71;100.00;101273.38;5264011;28;20496;-80
2024/03/16 04:54:18;;;;;;;4.35;3.03;;;;;;;10.76;100.00;101293.16;5263148;28;20040;-79
2024/03/16 04:56:50;;;;;;;4.32;2.08;;;;;;;10.69;100.00;101298.06;5262891;28;20044;-80
2024/03/16 04:59:21;;;;;;;4.18;1.80;;;;;;;10.64;100.00;101302.81;5261815;28;20409;-80
2024/03/16 05:01:53;;;;;;;2.38;1.30;;;;;;;10.60;100.00;101309.25;5244424;28;20040;-80
2024/03/16 05:04:26;;;;;;;4.90;1.90;;;;;;;10.62;100.00;101302.94;5264320;28;20064;-80
2024/03/16 05:06:57;;;;;;;4.43;1.48;;;;;;;10.63;100.00;101316.88;5263852;28;20043;-80
2024/03/16 05:09:29;;;;;;;3.00;1.35;;;;;;;10.61;100.00;101324.88;5266584;28;21045;-80
2024/03/16 05:12:01;;;;;;;3.47;1.58;;;;;;;10.60;100.00;101323.16;5266778;28;20038;-80
2024/03/16 05:14:33;;;;;;;4.22;1.52;;;;;;;10.55;100.00;101330.56;5268494;28;20306;-80
2024/03/16 05:17:05;;;;;;;4.13;1.80;;;;;;;10.57;100.00;101343.53;5268925;28;20020;-81
2024/03/16 05:19:38;;;;;;;2.97;1.50;;;;;;;10.52;100.00;101343.06;5264315;28;20347;-80
2024/03/16 05:22:10;;;;;;;7.32;1.92;;;;;;;10.50;100.00;101351.06;5246654;28;20052;-80
2024/03/16 05:24:42;;;;;;;3.35;1.42;;;;;;;10.48;100.00;101361.63;5267432;28;20452;-80
2024/03/16 05:27:15;;;;;;;3.42;1.30;;;;;;;10.44;100.00;101365.44;5268204;28;20038;-80
2024/03/16 05:29:47;;;;;;;6.20;1.83;;;;;;;10.48;100.00;101372.09;5266763;28;20037;-80
2024/03/16 05:32:19;;;;;;;3.72;1.30;;;;;;;10.48;100.00;101374.72;5267157;28;20029;-80
2024/03/16 05:34:51;;;;;;;4.25;1.60;;;;;;;10.44;100.00;101378.53;5266950;28;20040;-80
2024/03/16 05:37:23;;;;;;;3.58;1.60;;;;;;;10.39;100.00;101378.06;5267074;28;20374;-80
2024/03/16 05:39:55;;;;;;;2.92;1.10;;;;;;;10.41;100.00;101383.16;5265128;28;20465;-80
2024/03/16 05:42:26;;;;;;;5.80;1.55;;;;;;;10.42;100.00;101395.34;5267256;28;20036;-80
2024/03/16 05:44:59;;;;;;;3.55;1.20;;;;;;;10.36;100.00;101399.22;5268391;28;20032;-80
2024/03/16 05:47:31;;;;;;;5.00;1.40;;;;;;;10.42;100.00;101397.97;5269624;28;20068;-80
2024/03/16 05:50:03;;;;;;;6.78;1.60;;;;;;;10.41;100.00;101407.56;5268013;28;20028;-80
2024/03/16 05:52:37;;;;;;;6.07;1.50;;;;;;;10.39;100.00;101409.50;5269147;28;20496;-80
2024/03/16 05:55:09;;;;;;;4.20;1.55;;;;;;;10.40;100.00;101428.66;5264724;28;20378;-79
2024/03/16 05:57:41;;;;;;;5.72;1.30;;;;;;;10.42;100.00;101432.84;5267081;28;20039;-80
2024/03/16 06:00:13;;;;;;;4.90;1.10;;;;;;;10.40;100.00;101441.75;5263631;28;20028;-80
2024/03/16 06:02:45;;;;;;;8.00;1.97;;;;;;;10.41;100.00;101446.88;5267652;28;20075;-80
2024/03/16 06:05:18;;;;;;;5.82;1.33;;;;;;;10.29;100.00;101445.16;5267382;28;20286;-79
2024/03/16 06:07:50;;;;;;;2.97;1.20;;;;;;;10.35;100.00;101452.56;5266361;28;20405;-80
2024/03/16 06:10:21;;;;;;;4.25;1.40;;;;;;;10.28;100.00;101448.75;5264513;28;20040;-80
2024/03/16 06:12:53;;;;;;;6.25;1.75;;;;;;;10.28;100.00;101463.63;5267824;28;20045;-80
2024/03/16 06:15:25;;;;;;;4.97;1.20;;;;;;;10.33;100.00;101464.09;5267260;28;20715;-80
2024/03/16 06:17:57;;;;;;;2.60;1.10;;;;;;;10.35;100.00;101477.94;5263766;28;20036;-79
2024/03/16 06:20:29;;;;;;;6.15;1.65;;;;;;;10.37;100.00;101482.09;5264256;28;20489;-79
2024/03/16 06:23:01;;;;;;;3.25;1.15;;;;;;;10.34;100.00;101477.09;5265549;28;20041;-79
2024/03/16 06:25:46;;;;;;;5.07;1.23;;;;;;;10.38;100.00;101485.53;5266480;28;20039;-80
2024/03/16 06:28:21;;;;;;;4.90;1.48;;;;;;;10.43;100.00;101500.00;5266209;28;20039;-79
2024/03/16 06:30:59;;;;;;;5.13;1.42;;;;;;;10.40;100.00;101496.75;5267088;28;20032;-79
2024/03/16 06:33:32;;;;;;;4.53;1.30;;;;;;;10.49;100.00;101519.66;5266131;28;20060;-79
2024/03/16 06:36:05;;;;;;;3.58;1.15;;;;;;;10.48;100.00;101513.56;5264510;28;20028;-79
2024/03/16 06:38:37;;;;;;;5.43;1.23;;;;;;;10.45;100.00;101521.69;5267137;28;20032;-79
2024/03/16 06:41:10;;;;;;;5.47;1.42;;;;;;;10.37;100.00;101518.75;5267176;28;20718;-79
2024/03/16 06:43:42;;;;;;;6.72;1.50;;;;;;;10.46;100.00;101525.13;5266494;28;20047;-79
2024/03/16 06:46:14;;;;;;;4.53;1.33;;;;;;;10.44;100.00;101538.31;5262972;28;20036;-80
2024/03/16 06:48:46;;;;;;;5.93;1.35;;;;;;;10.45;100.00;101544.41;5266036;28;20043;-79
2024/03/16 06:51:18;;;;;;;7.80;1.90;;;;;;;10.51;100.00;101558.84;5261261;28;20044;-79
2024/03/16 06:53:50;;;;;;;7.07;1.53;;;;;;;10.47;100.00;101559.06;5265043;28;20055;-79
2024/03/16 06:56:22;;;;;;;4.47;1.30;;;;;;;10.48;100.00;101563.34;5258443;28;20771;-80
2024/03/16 06:58:55;;;;;;;6.05;1.63;;;;;;;10.48;100.00;101573.00;5266008;28;20039;-80
2024/03/16 07:01:27;;;;;;;3.97;1.10;;;;;;;10.56;100.00;101586.38;5265883;28;20029;-80
2024/03/16 07:03:59;;;;;;;2.20;0.85;;;;;;;10.37;100.00;101605.19;5263684;28;20683;-80
2024/03/16 07:06:31;;;;;;;3.15;0.98;;;;;;;10.21;100.00;101600.19;5262730;28;20048;-80
2024/03/16 07:09:08;;;;;;;5.50;1.50;;;;;;;10.14;100.00;101624.31;5261329;28;20910;-80
2024/03/16 07:11:40;;;;;;;2.67;1.17;;;;;;;10.07;100.00;101628.28;5264417;28;20028;-80
2024/03/16 07:14:12;;;;;;;2.67;1.30;;;;;;;10.05;100.00;101631.03;5264019;28;20226;-80
2024/03/16 07:16:44;;;;;;;3.20;1.10;;;;;;;10.04;100.00;101633.75;5265447;28;20382;-80
2024/03/16 07:19:18;;;;;;;3.67;1.23;;;;;;;10.03;100.00;101645.16;5258786;28;20067;-81
2024/03/16 07:21:51;;;;;;;3.53;1.50;;;;;;;10.02;100.00;101646.13;5262923;28;20029;-81
2024/03/16 07:24:22;;;;;;;4.60;1.23;;;;;;;10.06;100.00;101650.19;5263405;28;20412;-80
2024/03/16 07:26:54;;;;;;;3.97;1.40;;;;;;;10.10;100.00;101652.47;5259381;28;20021;-82
2024/03/16 07:29:28;;;;;;;4.43;1.70;;;;;;;10.14;100.00;101655.72;5259444;28;20031;-79
2024/03/16 07:32:00;;;;;;;3.58;1.73;;;;;;;10.25;100.00;101663.69;5258715;28;20040;-79
2024/03/16 07:34:33;;;;;;;5.72;2.08;;;;;;;10.28;100.00;101668.72;5263536;28;20043;-79
2024/03/16 07:37:05;;;;;;;5.25;1.60;;;;;;;10.34;100.00;101670.94;5264024;28;20492;-80
2024/03/16 07:39:37;;;;;;;4.13;1.65;;;;;;;10.39;100.00;101674.03;5263324;28;20036;-80
2024/03/16 07:42:09;;;;;;;3.85;1.60;;;;;;;10.40;100.00;101665.22;5264976;28;20047;-80
2024/03/16 07:44:41;;;;;;;4.40;1.40;;;;;;;10.53;100.00;101682.69;5247030;28;20389;-80
2024/03/16 07:47:13;;;;;;;2.78;1.08;;;;;;;10.44;100.00;101684.19;5264649;28;20036;-80
2024/03/16 07:49:45;;;;;;;3.15;1.38;;;;;;;10.47;100.00;101700.53;5264647;28;20117;-80
2024/03/16 07:52:17;;;;;;;2.95;1.30;;;;;;;10.56;100.00;101706.06;5263674;28;20211;-80
2024/03/16 07:54:49;;;;;;;2.83;1.30;;;;;;;10.52;100.00;101707.22;5263621;28;20035;-80
2024/03/16 07:57:21;;;;;;;3.13;1.40;;;;;;;10.55;100.00;101714.88;5261335;28;20352;-80
2024/03/16 07:59:53;;;;;;;4.78;1.30;;;;;;;10.58;100.00;101733.84;5263133;28;20036;-80
2024/03/16 08:02:25;;;;;;;5.37;1.47;;;;;;;10.57;100.00;101731.31;5265832;28;20505;-80
2024/03/16 08:04:57;;;;;;;4.13;1.15;;;;;;;10.49;100.00;101742.34;5264620;28;20036;-80
2024/03/16 08:07:29;;;;;;;3.80;1.30;;;;;;;10.51;100.00;101744.88;5263351;28;20040;-80
2024/03/16 08:10:03;;;;;;;5.28;1.40;;;;;;;10.51;100.00;101757.97;5263318;28;20050;-80
2024/03/16 08:12:35;;;;;;;5.38;1.10;;;;;;;10.51;100.00;101763.19;5263086;28;20835;-79
2024/03/16 08:15:07;;;;;;;3.20;0.93;;;;;;;10.55;100.00;101760.25;5261562;28;20036;-79
2024/03/16 08:17:39;;;;;;;3.10;0.80;;;;;;;10.47;100.00;101750.31;5264007;28;20246;-79
2024/03/16 08:20:12;;;;;;;3.83;0.95;;;;;;;10.51;100.00;101765.81;5263896;28;20029;-80
2024/03/16 08:22:44;;;;;;;2.17;0.60;;;;;;;10.53;100.00;101749.06;5263637;28;20044;-80
2024/03/16 08:25:16;;;;;;;3.70;1.15;;;;;;;10.57;100.00;101758.38;5265425;28;20219;-79
2024/03/16 08:27:48;;;;;;;4.07;0.93;;;;;;;10.66;100.00;101770.00;5245014;28;20406;-79
2024/03/16 08:30:20;;;;;;;5.78;0.95;;;;;;;10.73;100.00;101778.25;5263810;28;20036;-79
2024/03/16 08:32:52;;;;;;;3.13;1.02;;;;;;;10.82;100.00;101778.44;5263531;28;20508;-79
2024/03/16 08:35:24;;;;;;;4.90;0.80;;;;;;;10.92;100.00;101770.75;5264275;28;20382;-79
2024/03/16 08:37:56;;;;;;;2.13;0.57;;;;;;;10.88;100.00;101761.44;5263041;28;20047;-80
2024/03/16 08:40:28;;;;;;;4.20;1.13;;;;;;;11.05;100.00;101779.41;5264379;28;20036;-80
2024/03/16 08:43:00;;;;;;;3.25;0.82;;;;;;;11.09;100.00;101780.03;5268771;28;20052;-80
2024/03/16 08:45:34;;;;;;;3.80;1.05;;;;;;;11.17;100.00;101802.16;5269382;28;20082;-80
2024/03/16 08:48:06;;;;;;;3.38;1.00;;;;;;;11.22;100.00;101801.81;5267695;28;20488;-79
2024/03/16 08:50:38;;;;;;;4.45;0.82;;;;;;;11.19;100.00;101807.28;5268359;28;20039;-80
2024/03/16 08:53:10;;;;;;;4.32;1.00;;;;;;;11.21;100.00;101815.84;5268640;28;20869;-80
2024/03/16 08:55:42;;;;;;;7.22;1.13;;;;;;;11.17;100.00;101825.75;5267510;28;20268;-80
2024/03/16 08:58:14;;;;;;;4.72;1.55;;;;;;;11.03;100.00;101811.97;5266835;28;20588;-79
2024/03/16 09:00:46;;;;;;;4.32;1.60;;;;;;;10.93;100.00;101812.59;5265850;28;20046;-79
2024/03/16 09:03:18;;;;;;;3.97;1.30;;;;;;;10.85;100.00;101829.81;5269226;28;20029;-80
2024/03/16 09:05:50;;;;;;;2.22;0.70;;;;;;;10.83;100.00;101829.91;5265381;28;20055;-80
2024/03/16 09:08:21;;;;;;;4.80;1.25;;;;;;;10.76;100.00;101833.06;5268056;28;20047;-79
2024/03/16 09:10:53;;;;;;;6.90;1.30;;;;;;;10.75;100.00;101839.25;5265690;28;20020;-79
2024/03/16 09:13:26;;;;;;;4.57;1.02;;;;;;;10.76;100.00;101851.41;5269220;28;20047;-80
2024/03/16 09:15:57;;;;;;;4.72;1.23;;;;;;;10.69;100.00;101845.78;5268932;28;20036;-80
2024/03/16 09:18:29;;;;;;;3.72;0.80;;;;;;;10.77;100.00;101853.13;5268084;28;20037;-80
2024/03/16 09:21:02;;;;;;;3.75;1.42;;;;;;;10.66;100.00;101852.06;5265418;28;20029;-79
2024/03/16 09:23:34;;;;;;;5.28;1.33;;;;;;;10.91;100.00;101864.31;5268756;28;20043;-80
2024/03/16 09:26:07;;;;;;;5.00;1.65;;;;;;;10.93;100.00;101870.28;5251363;28;20052;-80
2024/03/16 09:28:39;;;;;;;5.80;1.30;;;;;;;11.01;100.00;101877.59;5266063;28;20467;-80
2024/03/16 09:31:11;;;;;;;5.25;0.90;;;;;;;11.02;100.00;101868.78;5268928;28;20032;-78
2024/03/16 09:33:43;;;;;;;4.13;1.10;;;;;;;11.18;100.00;101885.13;5262274;28;20039;-79
2024/03/16 09:36:15;;;;;;;3.58;1.13;;;;;;;11.22;100.00;101877.06;5261816;28;20037;-78
2024/03/16 09:38:47;;;;;;;6.28;1.38;;;;;;;11.25;100.00;101875.06;5265373;28;20068;-78
2024/03/16 09:41:20;;;;;;;3.28;1.17;;;;;;;11.28;100.00;101874.81;5266526;28;20043;-79
2024/03/16 09:43:53;;;;;;;3.55;1.10;;;;;;;11.37;100.00;101871.53;5265847;28;20517;-79
2024/03/16 09:46:31;;;;;;;4.15;0.95;;;;;;;11.48;100.00;101888.28;5266169;28;20028;-79
2024/03/16 09:49:03;;;;;;;4.50;1.20;;;;;;;11.49;100.00;101897.84;5266519;28;20199;-79
2024/03/16 09:51:35;;;;;;;2.97;1.00;;;;;;;11.52;100.00;101905.50;5265858;28;20659;-79
2024/03/16 09:54:09;;;;;;;4.72;1.20;;;;;;;11.67;100.00;101909.66;5266473;28;20043;-79
2024/03/16 09:56:41;;;;;;;3.75;1.27;;;;;;;11.82;100.00;101915.56;5247884;28;20055;-79
2024/03/16 09:59:19;;;;;;;3.55;1.00;;;;;;;11.93;100.00;101924.38;5265821;28;20126;-79
2024/03/16 10:01:51;;;;;;;4.03;0.90;;;;;;;11.87;100.00;101929.22;5265507;28;20482;-79
2024/03/16 10:04:23;;;;;;;4.15;1.00;;;;;;;11.80;100.00;101931.44;5265825;28;20035;-79
2024/03/16 10:06:55;;;;;;;4.60;1.00;;;;;;;11.69;100.00;101934.81;5266282;28;20028;-79
2024/03/16 10:09:27;;;;;;;4.82;0.90;;;;;;;11.61;100.00;101941.59;5267740;28;20035;-80
2024/03/16 10:12:09;;;;;;;9.35;1.25;;;;;;;11.61;100.00;101949.47;5248704;28;20040;-80
2024/03/16 10:14:41;;;;;;;3.45;0.80;;;;;;;11.35;100.00;101953.94;5265639;28;20863;-79
2024/03/16 10:17:12;;;;;;;5.07;1.00;;;;;;;11.37;100.00;101954.66;5264923;28;20036;-81
2024/03/16 10:19:44;;;;;;;3.97;1.23;;;;;;;11.44;100.00;101966.41;5265453;28;20040;-80
2024/03/16 10:22:17;;;;;;;5.47;1.55;;;;;;;11.48;100.00;101956.50;5248326;28;20051;-79
2024/03/16 10:24:51;;;;;;;4.22;1.20;;;;;;;11.53;100.00;101959.66;5267500;28;20039;-79
2024/03/16 10:27:24;;;;;;;3.80;0.98;;;;;;;11.54;100.00;101964.78;5268148;28;20507;-81
2024/03/16 10:29:55;;;;;;;6.45;1.27;;;;;;;11.49;100.00;101947.72;5250440;28;20041;-80
2024/03/16 10:32:28;;;;;;;3.22;1.27;;;;;;;11.77;100.00;101970.19;5269853;28;20032;-80
2024/03/16 10:35:04;;;;;;;4.03;1.00;;;;;;;11.74;100.00;101973.88;5269320;28;20032;-81
2024/03/16 10:37:38;;;;;;;4.57;1.60;;;;;;;11.78;100.00;101979.75;5268497;28;20032;-81
2024/03/16 10:40:14;;;;;;;5.82;1.15;;;;;;;11.85;100.00;102002.00;5268778;28;20032;-81
2024/03/16 10:42:48;;;;;;;3.13;0.73;;;;;;;11.77;100.00;101996.44;5268303;28;20885;-80
2024/03/16 10:45:20;;;;;;;4.32;1.00;;;;;;;11.75;100.00;102001.81;5267314;28;20039;-80
2024/03/16 10:47:54;;;;;;;4.33;1.27;;;;;;;11.91;100.00;101998.97;5269101;28;20107;-81
2024/03/16 10:50:27;;;;;;;;;;;;;;;12.55;100.00;102017.06;5268837;28;20176;-80
2024/03/16 10:53:00;;;;;;;3.88;1.20;;;;;;;11.98;100.00;102018.59;5267612;28;20535;-80
2024/03/16 10:55:33;;;;;;;2.72;0.88;;;;;;;12.01;100.00;102014.88;5268926;28;20036;-80
2024/03/16 10:58:22;;;;;;;1.83;0.60;;;;;;;12.32;95.90;102026.66;5267068;28;20288;-80
2024/03/16 11:01:18;;;;;;;4.35;1.20;;;;;;;12.44;97.24;102027.53;5266852;28;20037;-80
2024/03/16 11:03:55;;;;;;;5.25;1.58;;;;;;;12.21;94.38;102027.41;5267349;28;20051;-80
2024/03/16 11:06:28;;;;;;;3.58;0.98;;;;;;;12.20;87.37;102035.41;5267649;28;20043;-80
2024/03/16 11:09:00;;;;;;;4.15;1.27;;;;;;;12.16;88.64;102045.31;5265355;28;20033;-80
2024/03/16 11:11:32;;;;;;;5.95;1.17;;;;;;;12.12;83.91;102049.94;5268289;28;20039;-80
2024/03/16 11:14:11;;;;;;;4.63;0.98;;;;;;;12.04;88.78;102043.56;5267744;28;20410;-80
2024/03/16 11:16:46;;;;;;;3.35;0.80;;;;;;;12.06;85.53;102049.56;5265694;28;20292;-80
2024/03/16 11:19:22;;;;;;;2.58;0.95;;;;;;;11.99;84.06;102048.31;5267634;28;20548;-80
2024/03/16 11:21:54;;;;;;;3.05;1.20;;;;;;;12.07;84.52;102038.09;5266803;28;20047;-80
2024/03/16 11:24:26;;;;;;;6.43;1.00;;;;;;;12.14;86.38;102044.56;5246695;28;20506;-80
2024/03/16 11:27:09;;;;;;;6.75;1.52;;;;;;;12.36;85.87;102051.75;5266123;28;20773;-80
2024/03/16 11:30:16;;;;;;;3.53;1.00;;;;;;;12.62;87.71;102063.81;5264741;28;20059;-80
2024/03/16 11:32:48;;;;;;;5.32;1.40;;;;;;;12.26;83.65;102061.25;5257378;28;20051;-79
2024/03/16 11:35:20;;;;;;;5.38;0.80;;;;;;;12.17;79.33;102060.13;5264508;28;20059;-79
2024/03/16 11:37:52;;;;;;;3.08;0.70;;;;;;;12.17;80.96;102057.50;5247347;28;20040;-80
2024/03/16 11:40:27;;;;;;;4.95;0.90;;;;;;;12.10;81.15;102067.59;5264448;28;20036;-79
2024/03/16 11:43:00;;;;;;;3.33;1.00;;;;;;;12.12;79.93;102054.34;5262797;28;20318;-80
2024/03/16 11:45:36;;;;;;;3.58;1.10;;;;;;;12.25;80.24;102075.34;5245365;28;20048;-79